createdAt,value
2023-02-27T00:01:55.357Z,13.82
2023-02-27T00:03:57.568Z,16.33
2023-02-27T00:05:59.273Z,13.90
2023-02-27T00:08:00.714Z,17.13
2023-02-27T00:10:02.350Z,13.63
2023-02-27T00:12:04.010Z,11.02
2023-02-27T00:14:05.772Z,12.68
2023-02-27T00:16:07.946Z,14.73
2023-02-27T00:18:09.474Z,11.18
2023-02-27T00:20:13.588Z,13.18
2023-02-27T00:22:14.983Z,15.00
2023-02-27T00:24:16.491Z,12.45
2023-02-27T00:26:17.883Z,12.65
2023-02-27T00:28:19.305Z,14.52
2023-02-27T00:30:20.978Z,15.00
2023-02-27T00:32:22.425Z,16.45
2023-02-27T00:34:24.010Z,15.35
2023-02-27T00:36:25.664Z,13.23
2023-02-27T00:38:27.622Z,12.60
2023-02-27T00:40:29.074Z,15.27
2023-02-27T00:42:30.646Z,17.02
2023-02-27T00:44:32.085Z,13.43
2023-02-27T00:46:33.568Z,14.52
2023-02-27T00:48:34.973Z,15.02
2023-02-27T00:50:36.692Z,13.57
2023-02-27T00:52:38.989Z,15.77
2023-02-27T00:54:40.568Z,13.88
2023-02-27T00:56:42.025Z,18.60
2023-02-27T00:58:43.513Z,13.40
2023-02-27T01:00:45.191Z,13.60
2023-02-27T01:02:46.698Z,12.13
2023-02-27T01:04:48.344Z,11.80
2023-02-27T01:06:49.973Z,14.57
2023-02-27T01:08:51.432Z,13.45
2023-02-27T01:10:55.282Z,11.50
2023-02-27T01:12:56.777Z,11.73
2023-02-27T01:14:58.295Z,15.70
2023-02-27T01:16:59.934Z,15.40
2023-02-27T01:19:01.456Z,15.00
2023-02-27T01:21:02.900Z,12.95
2023-02-27T01:23:04.480Z,12.73
2023-02-27T01:25:06.463Z,16.13
2023-02-27T01:27:08.228Z,16.05
2023-02-27T01:29:09.743Z,16.88
2023-02-27T01:31:11.604Z,14.93
2023-02-27T01:33:13.055Z,13.45
2023-02-27T01:35:14.540Z,16.15
2023-02-27T01:37:16.197Z,12.07
2023-02-27T01:39:17.784Z,12.43
2023-02-27T01:41:19.306Z,11.20
2023-02-27T01:43:22.386Z,12.98
2023-02-27T01:45:33.674Z,10.35
2023-02-27T01:47:36.800Z,12.85
2023-02-27T01:49:38.408Z,11.88
2023-02-27T01:51:53.864Z,12.48
2023-02-27T01:53:56.285Z,13.88
2023-02-27T01:56:05.032Z,10.27
2023-02-27T01:58:09.760Z,12.60
2023-02-27T02:00:12.572Z,12.88
2023-02-27T02:02:24.907Z,13.20
2023-02-27T02:04:29.681Z,12.10
2023-02-27T02:06:35.580Z,11.07
2023-02-27T02:08:41.793Z,14.32
2023-02-27T02:10:44.082Z,11.95
2023-02-27T02:12:47.263Z,13.50
2023-02-27T02:14:48.846Z,11.70
2023-02-27T02:16:58.989Z,14.00
2023-02-27T02:19:21.983Z,13.30
2023-02-27T02:21:51.461Z,13.27
2023-02-27T02:24:01.635Z,16.63
2023-02-27T02:26:05.973Z,14.57
2023-02-27T02:28:29.218Z,12.65
2023-02-27T02:31:01.771Z,14.38
2023-02-27T02:33:21.787Z,21.85
2023-02-27T02:35:41.609Z,18.05
2023-02-27T02:38:11.902Z,18.65
2023-02-27T02:40:23.545Z,19.40
2023-02-27T02:42:34.131Z,22.42
2023-02-27T02:44:40.275Z,14.52
2023-02-27T02:46:56.260Z,12.80
2023-02-27T02:49:10.497Z,16.38
2023-02-27T02:51:34.067Z,12.10
2023-02-27T02:53:52.965Z,10.40
2023-02-27T02:56:17.715Z,16.60
2023-02-27T02:58:22.028Z,15.60
2023-02-27T03:00:30.397Z,19.73
2023-02-27T03:02:38.709Z,16.75
2023-02-27T03:04:46.585Z,16.52
2023-02-27T03:06:55.916Z,30.15
2023-02-27T03:09:10.556Z,23.90
2023-02-27T03:11:12.181Z,20.38
2023-02-27T03:13:27.284Z,24.70
2023-02-27T03:15:40.314Z,22.23
2023-02-27T03:17:56.314Z,16.97
2023-02-27T03:20:02.969Z,18.17
2023-02-27T03:22:19.655Z,15.27
2023-02-27T03:24:26.241Z,16.65
2023-02-27T03:26:37.580Z,20.73
2023-02-27T03:28:44.137Z,22.00
2023-02-27T03:30:53.397Z,23.52
2023-02-27T03:32:58.459Z,27.25
2023-02-27T03:35:00.261Z,22.13
2023-02-27T03:37:12.985Z,20.42
2023-02-27T03:39:37.604Z,15.20
2023-02-27T03:41:49.917Z,23.85
2023-02-27T03:44:05.424Z,20.10
2023-02-27T03:46:17.418Z,18.58
2023-02-27T03:48:18.953Z,16.48
2023-02-27T03:50:20.570Z,20.30
2023-02-27T03:52:24.203Z,20.38
2023-02-27T03:56:57.796Z,18.38
2023-02-27T03:58:59.347Z,25.17
2023-02-27T04:01:00.910Z,19.08
2023-02-27T04:03:02.951Z,29.00
2023-02-27T04:05:04.550Z,25.48
2023-02-27T04:07:20.365Z,26.38
2023-02-27T04:09:55.272Z,18.23
2023-02-27T04:12:18.974Z,21.20
2023-02-27T04:14:26.535Z,18.15
2023-02-27T04:16:44.711Z,21.90
2023-02-27T04:19:31.630Z,28.48
2023-02-27T04:22:05.320Z,35.67
2023-02-27T04:24:09.657Z,54.17
2023-02-27T04:26:23.946Z,29.10
2023-02-27T04:28:39.098Z,34.85
2023-02-27T04:30:48.984Z,37.33
2023-02-27T04:33:01.410Z,38.42
2023-02-27T04:35:11.442Z,52.90
2023-02-27T04:37:35.464Z,41.58
2023-02-27T04:39:47.823Z,39.72
2023-02-27T04:42:00.907Z,57.03
2023-02-27T04:44:05.210Z,51.20
2023-02-27T04:46:10.913Z,32.30
2023-02-27T04:48:34.469Z,22.30
2023-02-27T04:50:46.905Z,24.52
2023-02-27T04:52:55.794Z,28.25
2023-02-27T04:55:04.968Z,24.85
2023-02-27T04:57:10.712Z,24.10
2023-02-27T04:59:27.027Z,22.00
2023-02-27T05:01:42.048Z,29.08
2023-02-27T05:03:48.572Z,25.27
2023-02-27T05:05:53.687Z,25.27
2023-02-27T05:08:01.675Z,32.80
2023-02-27T05:10:08.007Z,158.40
2023-02-27T05:12:19.689Z,71.85
2023-02-27T05:14:28.916Z,38.20
2023-02-27T05:16:41.290Z,72.40
2023-02-27T05:18:43.244Z,28.02
2023-02-27T05:21:06.766Z,48.70
2023-02-27T05:23:08.116Z,53.50
2023-02-27T05:25:15.179Z,47.88
2023-02-27T05:27:32.230Z,94.72
2023-02-27T05:29:47.904Z,117.32
2023-02-27T05:31:56.684Z,116.72
2023-02-27T05:34:25.854Z,58.15
2023-02-27T05:36:36.190Z,49.08
2023-02-27T05:38:42.014Z,178.35
2023-02-27T05:40:52.347Z,142.40
2023-02-27T05:43:04.024Z,176.25
2023-02-27T05:45:13.116Z,158.02
2023-02-27T05:47:20.170Z,130.90
2023-02-27T05:49:26.788Z,197.52
2023-02-27T05:51:33.112Z,314.02
2023-02-27T05:53:40.936Z,57.70
2023-02-27T05:55:54.359Z,77.85
2023-02-27T05:58:01.618Z,80.50
2023-02-27T06:00:15.497Z,41.72
2023-02-27T06:04:18.779Z,43.03
2023-02-27T06:06:20.806Z,40.85
2023-02-27T06:08:22.825Z,27.45
2023-02-27T06:10:24.325Z,30.00
2023-02-27T06:12:26.054Z,30.77
2023-02-27T06:14:28.108Z,22.15
2023-02-27T06:16:29.931Z,90.60
2023-02-27T06:18:31.529Z,29.30
2023-02-27T06:20:32.961Z,26.83
2023-02-27T06:22:34.588Z,33.65
2023-02-27T06:24:36.179Z,32.15
2023-02-27T06:26:37.566Z,43.45
2023-02-27T06:28:39.111Z,62.50
2023-02-27T06:30:40.790Z,38.33
2023-02-27T06:32:42.212Z,32.55
2023-02-27T06:34:43.890Z,39.63
2023-02-27T06:36:45.570Z,24.33
2023-02-27T06:38:46.962Z,33.58
2023-02-27T06:40:48.371Z,30.65
2023-02-27T06:42:50.012Z,30.38
2023-02-27T06:44:51.425Z,30.35
2023-02-27T06:46:52.964Z,27.38
2023-02-27T06:48:54.497Z,23.98
2023-02-27T06:50:56.771Z,24.92
2023-02-27T06:52:58.355Z,45.65
2023-02-27T06:54:59.937Z,37.60
2023-02-27T06:57:01.331Z,51.60
2023-02-27T06:59:02.939Z,36.53
2023-02-27T07:01:04.632Z,29.70
2023-02-27T07:03:06.152Z,26.45
2023-02-27T07:05:08.520Z,24.63
2023-02-27T07:07:35.149Z,21.77
2023-02-27T07:09:32.056Z,21.33
2023-02-27T07:11:33.570Z,30.58
2023-02-27T07:13:35.333Z,21.40
2023-02-27T07:15:36.732Z,34.35
2023-02-27T07:17:38.302Z,26.63
2023-02-27T07:19:39.939Z,26.33
2023-02-27T07:21:41.349Z,21.27
2023-02-27T07:23:43.154Z,22.33
2023-02-27T07:25:47.389Z,35.33
2023-02-27T07:27:48.844Z,24.80
2023-02-27T07:29:50.344Z,27.88
2023-02-27T07:31:51.852Z,22.50
2023-02-27T07:33:53.235Z,32.53
2023-02-27T07:35:54.765Z,28.27
2023-02-27T07:37:56.291Z,39.83
2023-02-27T07:39:57.692Z,41.03
2023-02-27T07:41:59.162Z,35.20
2023-02-27T07:44:00.756Z,25.05
2023-02-27T07:46:02.197Z,41.67
2023-02-27T07:48:03.878Z,47.95
2023-02-27T07:50:06.019Z,21.90
2023-02-27T07:52:07.418Z,20.83
2023-02-27T07:54:08.938Z,20.83
2023-02-27T07:56:10.582Z,23.17
2023-02-27T07:58:12.013Z,22.98
2023-02-27T08:00:14.036Z,22.83
2023-02-27T08:02:15.792Z,28.77
2023-02-27T08:04:17.242Z,20.20
2023-02-27T08:06:18.836Z,21.73
2023-02-27T08:08:20.329Z,20.88
2023-02-27T08:10:21.873Z,17.90
2023-02-27T08:12:23.517Z,18.23
2023-02-27T08:14:25.335Z,17.33
2023-02-27T08:16:27.195Z,24.40
2023-02-27T08:18:28.842Z,12.70
2023-02-27T08:20:30.410Z,15.13
2023-02-27T08:22:31.842Z,15.30
2023-02-27T08:24:33.515Z,14.85
2023-02-27T08:26:35.150Z,17.40
2023-02-27T08:28:36.614Z,15.75
2023-02-27T08:30:38.193Z,12.45
2023-02-27T08:32:40.168Z,16.13
2023-02-27T08:34:41.762Z,13.75
2023-02-27T08:36:43.507Z,20.27
2023-02-27T08:38:45.048Z,11.27
2023-02-27T08:40:46.757Z,19.60
2023-02-27T08:42:48.259Z,10.35
2023-02-27T08:44:49.726Z,11.52
2023-02-27T08:46:51.153Z,16.85
2023-02-27T08:48:52.637Z,6.35
2023-02-27T08:50:55.671Z,6.55
2023-02-27T08:52:58.152Z,33.35
2023-02-27T08:54:59.661Z,56.03
2023-02-27T08:57:01.141Z,94.65
2023-02-27T08:59:02.587Z,72.50
2023-02-27T09:01:04.182Z,24.27
2023-02-27T09:03:05.896Z,15.75
2023-02-27T09:05:07.796Z,16.77
2023-02-27T09:07:09.417Z,9.52
2023-02-27T09:09:11.170Z,12.93
2023-02-27T09:11:12.582Z,17.90
2023-02-27T09:13:14.253Z,25.95
2023-02-27T09:15:16.396Z,23.15
2023-02-27T09:17:17.823Z,18.70
2023-02-27T09:19:19.403Z,17.85
2023-02-27T09:21:21.235Z,9.95
2023-02-27T09:23:23.932Z,12.98
2023-02-27T09:25:26.305Z,55.38
2023-02-27T09:27:28.370Z,16.65
2023-02-27T09:29:29.831Z,13.20
2023-02-27T09:31:33.412Z,18.67
2023-02-27T09:33:37.073Z,104.88
2023-02-27T09:35:38.501Z,56.63
2023-02-27T09:37:40.037Z,21.50
2023-02-27T09:39:43.991Z,8.45
2023-02-27T09:42:07.437Z,44.50
2023-02-27T09:44:30.656Z,14.18
2023-02-27T09:46:38.251Z,26.20
2023-02-27T09:48:47.411Z,21.75
2023-02-27T09:50:50.705Z,14.25
2023-02-27T09:52:52.335Z,25.15
2023-02-27T09:54:53.839Z,22.10
2023-02-27T09:57:00.625Z,24.67
2023-02-27T09:59:19.581Z,15.52
2023-02-27T10:01:30.702Z,22.25
2023-02-27T10:03:57.572Z,13.52
2023-02-27T10:06:18.387Z,21.15
2023-02-27T10:08:35.638Z,10.75
2023-02-27T10:11:03.571Z,7.03
2023-02-27T10:13:29.866Z,9.00
2023-02-27T10:15:37.114Z,9.27
2023-02-27T10:18:07.537Z,12.82
2023-02-27T10:20:30.902Z,13.82
2023-02-27T10:22:38.057Z,55.75
2023-02-27T10:24:44.753Z,22.80
2023-02-27T10:26:46.564Z,30.90
2023-02-27T10:28:48.144Z,53.58
2023-02-27T10:30:53.778Z,18.73
2023-02-27T10:33:32.468Z,16.85
2023-02-27T10:35:37.486Z,24.08
2023-02-27T10:37:48.007Z,14.50
2023-02-27T10:39:56.415Z,9.93
2023-02-27T10:42:05.441Z,9.30
2023-02-27T10:44:06.992Z,20.13
2023-02-27T10:46:22.034Z,15.10
2023-02-27T10:48:23.453Z,13.68
2023-02-27T10:50:31.055Z,58.58
2023-02-27T10:52:32.864Z,18.15
2023-02-27T10:54:34.508Z,12.15
2023-02-27T10:56:35.970Z,18.33
2023-02-27T10:58:38.004Z,18.40
2023-02-27T11:00:53.412Z,33.28
2023-02-27T11:02:55.062Z,33.75
2023-02-27T11:04:59.989Z,18.80
2023-02-27T11:07:04.684Z,13.05
2023-02-27T11:09:17.556Z,20.95
2023-02-27T11:11:28.567Z,20.00
2023-02-27T11:13:36.637Z,24.58
2023-02-27T11:15:38.552Z,26.38
2023-02-27T11:17:40.708Z,24.15
2023-02-27T11:19:42.113Z,22.58
2023-02-27T11:22:00.682Z,12.65
2023-02-27T11:24:07.152Z,17.90
2023-02-27T11:26:22.467Z,15.98
2023-02-27T11:28:26.831Z,12.25
2023-02-27T11:30:29.768Z,22.63
2023-02-27T11:32:44.267Z,13.05
2023-02-27T11:34:51.293Z,10.73
2023-02-27T11:36:56.389Z,17.60
2023-02-27T11:38:57.878Z,17.15
2023-02-27T11:41:03.321Z,9.88
2023-02-27T11:43:16.997Z,28.00
2023-02-27T11:46:13.296Z,79.45
2023-02-27T11:47:46.642Z,22.60
2023-02-27T11:50:17.176Z,47.28
2023-02-27T11:52:29.851Z,34.15
2023-02-27T11:54:37.135Z,11.63
2023-02-27T11:56:43.391Z,25.90
2023-02-27T11:58:56.379Z,93.05
2023-02-27T12:01:06.648Z,18.50
2023-02-27T12:03:37.428Z,8.40
2023-02-27T12:05:49.212Z,33.22
2023-02-27T12:07:57.636Z,34.15
2023-02-27T12:10:03.046Z,163.02
2023-02-27T12:12:14.152Z,101.03
2023-02-27T12:14:27.393Z,23.20
2023-02-27T12:16:40.414Z,77.50
2023-02-27T12:18:54.852Z,16.37
2023-02-27T12:21:04.259Z,9.40
2023-02-27T12:23:18.150Z,15.00
2023-02-27T12:25:43.671Z,14.27
2023-02-27T12:27:53.515Z,12.50
2023-02-27T12:30:02.046Z,14.93
2023-02-27T12:32:22.910Z,12.98
2023-02-27T12:34:27.759Z,13.30
2023-02-27T12:36:29.881Z,12.43
2023-02-27T12:38:31.646Z,18.95
2023-02-27T12:40:58.701Z,20.80
2023-02-27T12:43:19.078Z,14.95
2023-02-27T12:45:46.208Z,20.60
2023-02-27T12:48:17.040Z,19.33
2023-02-27T12:50:20.711Z,13.95
2023-02-27T12:52:26.916Z,17.65
2023-02-27T12:55:04.063Z,13.63
2023-02-27T12:57:15.309Z,26.45
2023-02-27T12:59:35.228Z,11.82
2023-02-27T13:01:51.263Z,93.65
2023-02-27T13:04:04.752Z,19.50
2023-02-27T13:06:21.290Z,15.10
2023-02-27T13:08:32.734Z,20.30
2023-02-27T13:10:48.101Z,36.90
2023-02-27T13:13:18.119Z,16.25
2023-02-27T13:15:31.013Z,124.75
2023-02-27T13:17:49.108Z,154.63
2023-02-27T13:20:29.121Z,40.95
2023-02-27T13:22:48.386Z,34.15
2023-02-27T13:24:51.664Z,32.53
2023-02-27T13:27:07.355Z,18.83
2023-02-27T13:29:14.333Z,51.97
2023-02-27T13:31:27.359Z,40.92
2023-02-27T13:33:45.476Z,47.08
2023-02-27T13:36:00.446Z,19.83
2023-02-27T13:38:19.727Z,56.00
2023-02-27T13:40:41.310Z,27.35
2023-02-27T13:42:45.774Z,21.63
2023-02-27T13:44:47.216Z,27.05
2023-02-27T13:46:48.776Z,26.02
2023-02-27T13:49:28.907Z,27.75
2023-02-27T13:51:36.980Z,15.10
2023-02-27T13:53:38.860Z,15.52
2023-02-27T13:55:40.522Z,19.35
2023-02-27T13:57:42.212Z,38.22
2023-02-27T13:59:53.088Z,34.30
2023-02-27T14:02:01.685Z,32.50
2023-02-27T14:04:07.360Z,35.42
2023-02-27T14:06:11.624Z,153.23
2023-02-27T14:08:33.833Z,26.90
2023-02-27T14:10:37.380Z,25.98
2023-02-27T14:12:45.705Z,44.28
2023-02-27T14:14:49.021Z,33.40
2023-02-27T14:16:51.430Z,18.55
2023-02-27T14:18:52.924Z,21.55
2023-02-27T14:20:54.554Z,12.98
2023-02-27T14:23:14.764Z,16.65
2023-02-27T14:25:19.121Z,23.60
2023-02-27T14:27:30.406Z,15.45
2023-02-27T14:29:34.914Z,21.23
2023-02-27T14:31:40.748Z,21.98
2023-02-27T14:33:48.511Z,16.55
2023-02-27T14:35:58.832Z,22.70
2023-02-27T14:38:08.142Z,44.05
2023-02-27T14:40:29.977Z,36.35
2023-02-27T14:42:34.803Z,163.25
2023-02-27T14:44:45.588Z,334.83
2023-02-27T14:46:47.227Z,243.73
2023-02-27T14:48:53.484Z,228.85
2023-02-27T14:50:55.172Z,373.00
2023-02-27T14:52:56.685Z,360.48
2023-02-27T14:55:16.807Z,90.47
2023-02-27T14:57:22.039Z,35.78
2023-02-27T14:59:26.192Z,33.08
2023-02-27T15:01:33.220Z,65.90
2023-02-27T15:03:52.090Z,24.45
2023-02-27T15:05:57.850Z,26.52
2023-02-27T15:07:59.417Z,17.90
2023-02-27T15:10:05.092Z,11.48
2023-02-27T15:12:06.807Z,17.13
2023-02-27T15:14:08.324Z,14.80
2023-02-27T15:16:38.242Z,43.13
2023-02-27T15:18:40.185Z,25.33
2023-02-27T15:20:41.627Z,45.53
2023-02-27T15:22:43.113Z,45.90
2023-02-27T15:24:50.287Z,59.30
2023-02-27T15:26:56.207Z,38.80
2023-02-27T15:28:58.207Z,67.53
2023-02-27T15:30:59.834Z,43.42
2023-02-27T15:33:01.806Z,27.75
2023-02-27T15:35:25.778Z,29.90
2023-02-27T15:37:33.251Z,43.90
2023-02-27T15:39:35.475Z,70.15
2023-02-27T15:41:37.935Z,206.38
2023-02-27T15:43:40.839Z,153.75
2023-02-27T15:45:42.894Z,64.93
2023-02-27T15:47:44.405Z,43.83
2023-02-27T15:49:47.291Z,63.88
2023-02-27T15:51:59.918Z,81.18
2023-02-27T15:54:04.466Z,37.05
2023-02-27T15:56:11.338Z,72.57
2023-02-27T15:58:43.947Z,66.38
2023-02-27T16:00:46.472Z,62.97
2023-02-27T16:02:51.381Z,30.40
2023-02-27T16:04:53.204Z,89.82
2023-02-27T16:07:17.793Z,85.47
2023-02-27T16:09:24.392Z,38.75
2023-02-27T16:11:29.817Z,45.78
2023-02-27T16:13:40.078Z,33.42
2023-02-27T16:15:41.576Z,56.60
2023-02-27T16:18:02.884Z,63.88
2023-02-27T16:20:30.313Z,48.28
2023-02-27T16:22:31.885Z,39.85
2023-02-27T16:24:34.021Z,45.50
2023-02-27T16:26:36.842Z,53.95
2023-02-27T16:28:57.149Z,52.08
2023-02-27T16:30:58.910Z,53.00
2023-02-27T16:33:01.545Z,49.78
2023-02-27T16:35:07.083Z,33.17
2023-02-27T16:37:20.420Z,31.58
2023-02-27T16:39:24.560Z,17.55
2023-02-27T16:41:27.427Z,26.92
2023-02-27T16:43:28.829Z,49.95
2023-02-27T16:45:30.376Z,128.73
2023-02-27T16:47:31.798Z,268.23
2023-02-27T16:49:33.706Z,108.30
2023-02-27T16:51:35.355Z,206.43
2023-02-27T16:53:36.864Z,112.50
2023-02-27T16:55:40.159Z,59.95
2023-02-27T16:57:41.809Z,119.43
2023-02-27T16:59:43.644Z,202.68
2023-02-27T17:01:45.070Z,134.68
2023-02-27T17:03:47.523Z,455.92
2023-02-27T17:05:49.110Z,222.80
2023-02-27T17:07:50.531Z,78.22
2023-02-27T17:09:52.032Z,89.03
2023-02-27T17:11:54.307Z,84.88
2023-02-27T17:13:55.711Z,101.45
2023-02-27T17:15:57.263Z,92.70
2023-02-27T17:17:59.155Z,99.13
2023-02-27T17:20:00.600Z,109.85
2023-02-27T17:22:02.151Z,81.53
2023-02-27T17:24:03.721Z,77.38
2023-02-27T17:26:05.122Z,79.28
2023-02-27T17:28:06.602Z,69.05
2023-02-27T17:30:08.934Z,91.70
2023-02-27T17:32:10.411Z,326.30
2023-02-27T17:34:12.196Z,424.85
2023-02-27T17:36:13.675Z,251.23
2023-02-27T17:38:15.124Z,200.35
2023-02-27T17:40:17.193Z,140.55
2023-02-27T17:42:18.807Z,168.88
2023-02-27T17:44:20.480Z,187.38
2023-02-27T17:46:23.880Z,208.13
2023-02-27T17:48:25.487Z,403.77
2023-02-27T17:50:26.952Z,361.48
2023-02-27T17:52:28.443Z,188.27
2023-02-27T17:54:29.933Z,270.90
2023-02-27T17:56:31.808Z,126.47
2023-02-27T17:58:33.975Z,238.10
2023-02-27T18:00:35.705Z,201.13
2023-02-27T18:02:37.125Z,372.20
2023-02-27T18:04:38.725Z,356.20
2023-02-27T18:06:40.444Z,350.48
2023-02-27T18:08:41.991Z,203.45
2023-02-27T18:10:50.779Z,149.85
2023-02-27T18:12:52.278Z,189.10
2023-02-27T18:14:53.758Z,139.20
2023-02-27T18:16:55.948Z,197.85
2023-02-27T18:18:57.392Z,117.88
2023-02-27T18:21:00.731Z,132.63
2023-02-27T18:23:02.254Z,127.10
2023-02-27T18:25:03.893Z,124.80
2023-02-27T18:27:05.295Z,137.55
2023-02-27T18:29:09.326Z,111.15
2023-02-27T18:31:24.126Z,127.07
2023-02-27T18:33:25.678Z,96.18
2023-02-27T18:35:27.939Z,107.10
2023-02-27T18:37:29.584Z,126.28
2023-02-27T18:39:30.991Z,99.32
2023-02-27T18:41:33.224Z,138.38
2023-02-27T18:43:35.741Z,118.38
2023-02-27T18:45:37.944Z,103.57
2023-02-27T18:47:39.556Z,98.40
2023-02-27T18:49:41.062Z,78.03
2023-02-27T18:51:42.937Z,86.30
2023-02-27T18:53:47.789Z,82.57
2023-02-27T18:55:49.259Z,83.30
2023-02-27T18:57:50.718Z,77.57
2023-02-27T18:59:52.361Z,76.68
2023-02-27T19:01:54.009Z,76.45
2023-02-27T19:03:56.357Z,62.40
2023-02-27T19:05:58.089Z,58.15
2023-02-27T19:07:59.573Z,51.83
2023-02-27T19:10:00.968Z,76.10
2023-02-27T19:12:02.667Z,97.82
2023-02-27T19:14:06.645Z,59.72
2023-02-27T19:16:08.095Z,76.22
2023-02-27T19:18:09.703Z,327.42
2023-02-27T19:20:11.668Z,175.10
2023-02-27T19:22:13.072Z,199.63
2023-02-27T19:24:15.105Z,176.13
2023-02-27T19:26:16.689Z,197.82
2023-02-27T19:28:18.074Z,187.68
2023-02-27T19:30:19.747Z,168.30
2023-02-27T19:32:21.242Z,157.45
2023-02-27T19:34:22.717Z,144.95
2023-02-27T19:36:25.868Z,133.40
2023-02-27T19:38:27.415Z,183.70
2023-02-27T19:40:28.809Z,160.18
2023-02-27T19:42:30.317Z,145.25
2023-02-27T19:44:31.824Z,142.30
2023-02-27T19:46:34.489Z,173.48
2023-02-27T19:48:36.407Z,168.38
2023-02-27T19:50:39.971Z,324.17
2023-02-27T19:54:42.811Z,487.00
2023-02-27T19:56:44.535Z,364.88
2023-02-27T19:58:46.493Z,310.17
2023-02-27T20:00:47.997Z,266.52
2023-02-27T20:02:49.616Z,389.48
2023-02-27T20:04:51.033Z,277.98
2023-02-27T20:06:52.686Z,261.45
2023-02-27T20:08:55.112Z,277.50
2023-02-27T20:10:58.695Z,294.67
2023-02-27T20:13:00.209Z,261.00
2023-02-27T20:15:01.792Z,282.65
2023-02-27T20:17:03.223Z,289.98
2023-02-27T20:19:06.814Z,274.75
2023-02-27T20:23:10.909Z,313.80
2023-02-27T20:25:12.832Z,492.38
2023-02-27T20:27:14.398Z,346.95
2023-02-27T20:29:19.114Z,376.92
2023-02-27T20:31:23.225Z,300.00
2023-02-27T20:33:24.789Z,230.15
2023-02-27T20:35:26.276Z,215.73
2023-02-27T20:37:27.762Z,210.60
2023-02-27T20:39:29.355Z,199.40
2023-02-27T20:41:31.320Z,233.52
2023-02-27T20:43:33.558Z,212.95
2023-02-27T20:45:38.782Z,203.57
2023-02-27T20:47:40.206Z,190.25
2023-02-27T20:49:41.692Z,161.60
2023-02-27T20:51:43.828Z,193.82
2023-02-27T20:53:47.408Z,176.88
2023-02-27T20:57:50.923Z,150.68
2023-02-27T20:59:52.335Z,150.68
2023-02-27T21:01:54.817Z,145.32
2023-02-27T21:03:57.379Z,130.88
2023-02-27T21:05:59.787Z,139.63
2023-02-27T21:08:03.609Z,133.93
2023-02-27T21:10:05.396Z,123.13
2023-02-27T21:12:07.523Z,129.88
2023-02-27T21:14:11.470Z,106.65
2023-02-27T21:16:14.985Z,102.65
2023-02-27T21:20:18.043Z,89.97
2023-02-27T21:22:19.449Z,79.10
2023-02-27T21:24:21.338Z,86.47
2023-02-27T21:26:26.398Z,96.55
2023-02-27T21:28:27.793Z,97.63
2023-02-27T21:30:29.849Z,89.93
2023-02-27T21:32:31.526Z,99.05
2023-02-27T21:34:32.970Z,142.15
2023-02-27T21:36:37.514Z,96.47
2023-02-27T21:38:39.633Z,70.25
2023-02-27T21:40:41.031Z,63.90
2023-02-27T21:42:42.891Z,67.47
2023-02-27T21:44:44.371Z,59.60
2023-02-27T21:46:45.960Z,66.35
2023-02-27T21:48:47.423Z,74.75
2023-02-27T21:50:48.896Z,74.50
2023-02-27T21:52:50.290Z,78.45
2023-02-27T21:54:51.802Z,72.82
2023-02-27T21:56:53.242Z,81.70
2023-02-27T21:58:55.029Z,76.63
2023-02-27T22:00:56.523Z,75.18
2023-02-27T22:02:58.096Z,65.47
2023-02-27T22:04:59.557Z,56.20
2023-02-27T22:07:01.045Z,64.05
2023-02-27T22:09:05.458Z,71.18
2023-02-27T22:11:07.263Z,86.88
2023-02-27T22:13:08.962Z,72.22
2023-02-27T22:15:11.003Z,81.10
2023-02-27T22:17:12.435Z,73.07
2023-02-27T22:19:17.126Z,80.90
2023-02-27T22:21:24.322Z,98.43
2023-02-27T22:23:26.323Z,59.17
2023-02-27T22:25:28.028Z,56.20
2023-02-27T22:27:29.544Z,50.17
2023-02-27T22:29:30.930Z,57.25
2023-02-27T22:31:35.370Z,53.38
2023-02-27T22:33:38.162Z,82.20
2023-02-27T22:35:39.556Z,89.75
2023-02-27T22:37:41.042Z,76.18
2023-02-27T22:39:42.742Z,69.10
2023-02-27T22:41:44.237Z,70.38
2023-02-27T22:43:45.832Z,66.78
2023-02-27T22:45:47.871Z,66.65
2023-02-27T22:47:49.349Z,72.82
2023-02-27T22:49:51.394Z,66.45
2023-02-27T22:51:53.221Z,69.90
2023-02-27T22:53:56.644Z,66.22
2023-02-27T22:55:58.040Z,61.38
2023-02-27T22:57:59.690Z,60.33
2023-02-27T23:00:01.109Z,57.55
2023-02-27T23:02:02.590Z,55.10
2023-02-27T23:04:08.383Z,49.65
2023-02-27T23:06:12.580Z,61.35
2023-02-27T23:08:14.405Z,52.58
2023-02-27T23:10:16.195Z,47.25
2023-02-27T23:12:17.640Z,46.85
2023-02-27T23:14:20.581Z,55.42
2023-02-27T23:16:22.597Z,58.33
2023-02-27T23:18:24.508Z,53.20
2023-02-27T23:20:26.370Z,59.78
2023-02-27T23:22:28.085Z,60.92
2023-02-27T23:24:29.473Z,64.38
2023-02-27T23:26:31.084Z,60.53
2023-02-27T23:28:34.685Z,89.75
2023-02-27T23:30:36.198Z,77.97
2023-02-27T23:32:37.603Z,88.60
2023-02-27T23:34:49.043Z,77.00
2023-02-27T23:36:51.142Z,65.38
2023-02-27T23:38:52.568Z,76.97
2023-02-27T23:40:54.279Z,75.97
2023-02-27T23:42:55.683Z,79.13
2023-02-27T23:44:57.182Z,76.90
2023-02-27T23:46:58.784Z,74.75
2023-02-27T23:49:01.006Z,88.00
2023-02-27T23:51:03.840Z,73.22
2023-02-27T23:53:07.297Z,65.45
2023-02-27T23:57:10.135Z,57.33
2023-02-27T23:59:11.892Z,61.47
